sensor_id;sensor_type;location;lat;lon;timestamp;temperature;humidity
13850;DHT22;6995;52.618;13.488;2023-12-20T00:01:01;7.30;1.00
13850;DHT22;6995;52.618;13.488;2023-12-20T00:03:26;7.30;1.00
13850;DHT22;6995;52.618;13.488;2023-12-20T00:05:52;7.30;1.00
13850;DHT22;6995;52.618;13.488;2023-12-20T00:08:18;7.30;1.00
13850;DHT22;6995;52.618;13.488;2023-12-20T00:10:44;7.30;1.00
13850;DHT22;6995;52.618;13.488;2023-12-20T00:13:10;7.30;1.00
13850;DHT22;6995;52.618;13.488;2023-12-20T00:15:35;7.30;1.00
13850;DHT22;6995;52.618;13.488;2023-12-20T00:18:01;7.30;1.00
13850;DHT22;6995;52.618;13.488;2023-12-20T00:20:28;7.30;1.00
13850;DHT22;6995;52.618;13.488;2023-12-20T00:22:57;7.30;1.00
13850;DHT22;6995;52.618;13.488;2023-12-20T00:25:26;7.30;1.00
13850;DHT22;6995;52.618;13.488;2023-12-20T00:27:52;7.30;1.00
13850;DHT22;6995;52.618;13.488;2023-12-20T00:30:18;7.40;1.00
13850;DHT22;6995;52.618;13.488;2023-12-20T00:32:43;7.30;1.00
13850;DHT22;6995;52.618;13.488;2023-12-20T00:35:15;7.30;1.00
13850;DHT22;6995;52.618;13.488;2023-12-20T00:37:40;7.30;1.00
13850;DHT22;6995;52.618;13.488;2023-12-20T00:40:06;7.30;1.00
13850;DHT22;6995;52.618;13.488;2023-12-20T00:42:33;7.30;1.00
13850;DHT22;6995;52.618;13.488;2023-12-20T00:44:59;7.30;1.00
13850;DHT22;6995;52.618;13.488;2023-12-20T00:47:25;7.30;1.00
13850;DHT22;6995;52.618;13.488;2023-12-20T00:49:51;7.30;1.00
13850;DHT22;6995;52.618;13.488;2023-12-20T00:52:17;7.20;1.00
13850;DHT22;6995;52.618;13.488;2023-12-20T00:54:43;7.20;1.00
13850;DHT22;6995;52.618;13.488;2023-12-20T00:57:09;7.30;1.00
13850;DHT22;6995;52.618;13.488;2023-12-20T00:59:34;7.30;1.00
13850;DHT22;6995;52.618;13.488;2023-12-20T01:02:00;7.20;1.00
13850;DHT22;6995;52.618;13.488;2023-12-20T01:04:26;7.20;1.00
13850;DHT22;6995;52.618;13.488;2023-12-20T01:06:52;7.20;1.00
13850;DHT22;6995;52.618;13.488;2023-12-20T01:09:17;7.30;1.00
13850;DHT22;6995;52.618;13.488;2023-12-20T01:11:44;7.20;1.00
13850;DHT22;6995;52.618;13.488;2023-12-20T01:14:09;7.20;1.00
13850;DHT22;6995;52.618;13.488;2023-12-20T01:16:35;7.30;1.00
13850;DHT22;6995;52.618;13.488;2023-12-20T01:19:01;7.30;1.00
13850;DHT22;6995;52.618;13.488;2023-12-20T01:21:26;7.30;1.00
13850;DHT22;6995;52.618;13.488;2023-12-20T01:23:52;7.20;1.00
13850;DHT22;6995;52.618;13.488;2023-12-20T01:26:17;7.30;1.00
13850;DHT22;6995;52.618;13.488;2023-12-20T01:28:43;7.30;1.00
13850;DHT22;6995;52.618;13.488;2023-12-20T01:31:09;7.30;1.00
13850;DHT22;6995;52.618;13.488;2023-12-20T01:33:34;7.30;1.00
13850;DHT22;6995;52.618;13.488;2023-12-20T01:36:00;7.30;1.00
13850;DHT22;6995;52.618;13.488;2023-12-20T01:38:25;7.20;1.00
13850;DHT22;6995;52.618;13.488;2023-12-20T01:40:51;7.20;1.00
13850;DHT22;6995;52.618;13.488;2023-12-20T01:43:17;7.20;1.00
13850;DHT22;6995;52.618;13.488;2023-12-20T01:45:42;7.30;1.00
13850;DHT22;6995;52.618;13.488;2023-12-20T01:48:08;7.20;1.00
13850;DHT22;6995;52.618;13.488;2023-12-20T01:50:36;7.30;1.00
13850;DHT22;6995;52.618;13.488;2023-12-20T01:53:02;7.30;1.00
13850;DHT22;6995;52.618;13.488;2023-12-20T01:55:32;7.30;1.00
13850;DHT22;6995;52.618;13.488;2023-12-20T01:57:59;7.20;1.00
13850;DHT22;6995;52.618;13.488;2023-12-20T02:00:27;7.20;1.00
13850;DHT22;6995;52.618;13.488;2023-12-20T02:02:54;7.20;1.00
13850;DHT22;6995;52.618;13.488;2023-12-20T02:05:22;7.20;1.00
13850;DHT22;6995;52.618;13.488;2023-12-20T02:07:50;7.20;1.00
13850;DHT22;6995;52.618;13.488;2023-12-20T02:10:16;7.20;1.00
13850;DHT22;6995;52.618;13.488;2023-12-20T02:12:41;7.20;1.00
13850;DHT22;6995;52.618;13.488;2023-12-20T02:15:07;7.20;1.00
13850;DHT22;6995;52.618;13.488;2023-12-20T02:17:34;7.20;1.00
13850;DHT22;6995;52.618;13.488;2023-12-20T02:19:59;7.20;1.00
13850;DHT22;6995;52.618;13.488;2023-12-20T02:22:25;7.20;1.00
13850;DHT22;6995;52.618;13.488;2023-12-20T02:24:53;7.20;1.00
13850;DHT22;6995;52.618;13.488;2023-12-20T02:27:19;7.20;1.00
13850;DHT22;6995;52.618;13.488;2023-12-20T02:29:47;7.20;1.00
13850;DHT22;6995;52.618;13.488;2023-12-20T02:32:12;7.20;1.00
13850;DHT22;6995;52.618;13.488;2023-12-20T02:34:38;7.10;1.00
13850;DHT22;6995;52.618;13.488;2023-12-20T02:37:04;7.10;1.00
13850;DHT22;6995;52.618;13.488;2023-12-20T02:39:30;7.10;1.00
13850;DHT22;6995;52.618;13.488;2023-12-20T02:41:56;7.00;1.00
13850;DHT22;6995;52.618;13.488;2023-12-20T02:44:21;7.00;1.00
13850;DHT22;6995;52.618;13.488;2023-12-20T02:46:47;7.00;1.00
13850;DHT22;6995;52.618;13.488;2023-12-20T02:49:13;7.00;1.00
13850;DHT22;6995;52.618;13.488;2023-12-20T02:51:38;6.90;1.00
13850;DHT22;6995;52.618;13.488;2023-12-20T02:54:04;6.90;1.00
13850;DHT22;6995;52.618;13.488;2023-12-20T02:56:32;6.90;1.00
13850;DHT22;6995;52.618;13.488;2023-12-20T02:58:57;6.90;1.00
13850;DHT22;6995;52.618;13.488;2023-12-20T03:01:23;6.90;1.00
13850;DHT22;6995;52.618;13.488;2023-12-20T03:03:48;6.90;99.90
13850;DHT22;6995;52.618;13.488;2023-12-20T03:06:18;6.90;99.90
13850;DHT22;6995;52.618;13.488;2023-12-20T03:08:45;6.90;99.90
13850;DHT22;6995;52.618;13.488;2023-12-20T03:11:11;6.90;99.90
13850;DHT22;6995;52.618;13.488;2023-12-20T03:13:37;6.80;99.90
13850;DHT22;6995;52.618;13.488;2023-12-20T03:16:08;6.80;99.90
13850;DHT22;6995;52.618;13.488;2023-12-20T03:18:34;6.70;99.90
13850;DHT22;6995;52.618;13.488;2023-12-20T03:21:00;6.70;99.90
13850;DHT22;6995;52.618;13.488;2023-12-20T03:23:25;6.60;99.90
13850;DHT22;6995;52.618;13.488;2023-12-20T03:25:52;6.60;99.90
13850;DHT22;6995;52.618;13.488;2023-12-20T03:28:18;6.50;99.90
13850;DHT22;6995;52.618;13.488;2023-12-20T03:30:44;6.50;99.90
13850;DHT22;6995;52.618;13.488;2023-12-20T03:33:10;6.50;99.90
13850;DHT22;6995;52.618;13.488;2023-12-20T03:35:36;6.50;99.90
13850;DHT22;6995;52.618;13.488;2023-12-20T03:38:01;6.40;99.90
13850;DHT22;6995;52.618;13.488;2023-12-20T03:40:27;6.40;99.90
13850;DHT22;6995;52.618;13.488;2023-12-20T03:42:53;6.40;99.90
13850;DHT22;6995;52.618;13.488;2023-12-20T03:45:18;6.40;99.90
13850;DHT22;6995;52.618;13.488;2023-12-20T03:47:44;6.40;99.90
13850;DHT22;6995;52.618;13.488;2023-12-20T03:50:09;6.40;99.90
13850;DHT22;6995;52.618;13.488;2023-12-20T03:52:35;6.30;99.90
13850;DHT22;6995;52.618;13.488;2023-12-20T03:55:01;6.30;99.90
13850;DHT22;6995;52.618;13.488;2023-12-20T03:57:26;6.30;99.90
13850;DHT22;6995;52.618;13.488;2023-12-20T03:59:52;6.30;99.90
13850;DHT22;6995;52.618;13.488;2023-12-20T04:02:17;6.30;99.90
13850;DHT22;6995;52.618;13.488;2023-12-20T04:04:43;6.40;99.90
13850;DHT22;6995;52.618;13.488;2023-12-20T04:07:09;6.40;99.90
13850;DHT22;6995;52.618;13.488;2023-12-20T04:09:34;6.40;99.90
13850;DHT22;6995;52.618;13.488;2023-12-20T04:15:06;6.30;99.90
13850;DHT22;6995;52.618;13.488;2023-12-20T04:17:35;6.30;99.90
13850;DHT22;6995;52.618;13.488;2023-12-20T04:20:01;6.20;99.90
13850;DHT22;6995;52.618;13.488;2023-12-20T04:22:27;6.20;99.90
13850;DHT22;6995;52.618;13.488;2023-12-20T04:24:53;6.20;99.90
13850;DHT22;6995;52.618;13.488;2023-12-20T04:27:18;6.20;99.90
13850;DHT22;6995;52.618;13.488;2023-12-20T04:29:53;6.20;99.90
13850;DHT22;6995;52.618;13.488;2023-12-20T04:32:18;6.20;99.90
13850;DHT22;6995;52.618;13.488;2023-12-20T04:34:44;6.20;99.90
13850;DHT22;6995;52.618;13.488;2023-12-20T04:37:10;6.10;99.90
13850;DHT22;6995;52.618;13.488;2023-12-20T04:39:35;6.00;99.90
13850;DHT22;6995;52.618;13.488;2023-12-20T04:42:01;6.00;99.90
13850;DHT22;6995;52.618;13.488;2023-12-20T04:44:26;5.90;99.90
13850;DHT22;6995;52.618;13.488;2023-12-20T04:46:52;6.00;99.90
13850;DHT22;6995;52.618;13.488;2023-12-20T04:49:18;6.00;99.90
13850;DHT22;6995;52.618;13.488;2023-12-20T04:51:43;6.00;99.90
13850;DHT22;6995;52.618;13.488;2023-12-20T04:54:09;6.00;99.90
13850;DHT22;6995;52.618;13.488;2023-12-20T04:56:36;6.00;99.90
13850;DHT22;6995;52.618;13.488;2023-12-20T04:59:01;6.00;99.90
13850;DHT22;6995;52.618;13.488;2023-12-20T05:01:27;6.00;99.90
13850;DHT22;6995;52.618;13.488;2023-12-20T05:03:53;6.10;99.90
13850;DHT22;6995;52.618;13.488;2023-12-20T05:06:18;6.10;99.90
13850;DHT22;6995;52.618;13.488;2023-12-20T05:08:44;6.00;99.90
13850;DHT22;6995;52.618;13.488;2023-12-20T05:11:10;6.00;99.90
13850;DHT22;6995;52.618;13.488;2023-12-20T05:13:35;6.00;99.90
13850;DHT22;6995;52.618;13.488;2023-12-20T05:16:01;6.10;99.90
13850;DHT22;6995;52.618;13.488;2023-12-20T05:18:26;6.00;99.90
13850;DHT22;6995;52.618;13.488;2023-12-20T05:21:00;6.00;99.90
13850;DHT22;6995;52.618;13.488;2023-12-20T05:23:26;5.90;99.90
13850;DHT22;6995;52.618;13.488;2023-12-20T05:25:51;5.90;99.90
13850;DHT22;6995;52.618;13.488;2023-12-20T05:28:17;5.90;99.90
13850;DHT22;6995;52.618;13.488;2023-12-20T05:30:50;5.80;99.90
13850;DHT22;6995;52.618;13.488;2023-12-20T05:33:15;5.80;99.90
13850;DHT22;6995;52.618;13.488;2023-12-20T05:35:41;5.70;99.90
13850;DHT22;6995;52.618;13.488;2023-12-20T05:38:06;5.70;99.90
13850;DHT22;6995;52.618;13.488;2023-12-20T05:40:32;5.70;99.90
13850;DHT22;6995;52.618;13.488;2023-12-20T05:42:57;5.70;99.90
13850;DHT22;6995;52.618;13.488;2023-12-20T05:45:23;5.60;99.90
13850;DHT22;6995;52.618;13.488;2023-12-20T05:47:49;5.60;98.10
13850;DHT22;6995;52.618;13.488;2023-12-20T05:50:15;5.60;39.60
13850;DHT22;6995;52.618;13.488;2023-12-20T05:52:40;5.60;40.00
13850;DHT22;6995;52.618;13.488;2023-12-20T05:55:06;5.60;21.00
13850;DHT22;6995;52.618;13.488;2023-12-20T05:57:32;5.60;1.00
13850;DHT22;6995;52.618;13.488;2023-12-20T05:59:57;5.50;1.00
13850;DHT22;6995;52.618;13.488;2023-12-20T06:02:23;5.50;9.70
13850;DHT22;6995;52.618;13.488;2023-12-20T06:04:52;5.60;1.00
13850;DHT22;6995;52.618;13.488;2023-12-20T06:07:17;5.60;1.00
13850;DHT22;6995;52.618;13.488;2023-12-20T06:09:43;5.60;1.00
13850;DHT22;6995;52.618;13.488;2023-12-20T06:12:08;5.70;1.00
13850;DHT22;6995;52.618;13.488;2023-12-20T06:14:34;5.70;1.00
13850;DHT22;6995;52.618;13.488;2023-12-20T06:17:01;5.70;1.00
13850;DHT22;6995;52.618;13.488;2023-12-20T06:19:27;5.70;1.00
13850;DHT22;6995;52.618;13.488;2023-12-20T06:21:53;5.70;1.00
13850;DHT22;6995;52.618;13.488;2023-12-20T06:24:18;5.70;1.00
13850;DHT22;6995;52.618;13.488;2023-12-20T06:26:44;5.70;1.00
13850;DHT22;6995;52.618;13.488;2023-12-20T06:29:10;5.60;1.00
13850;DHT22;6995;52.618;13.488;2023-12-20T06:31:35;5.60;1.00
13850;DHT22;6995;52.618;13.488;2023-12-20T06:34:01;5.60;1.00
13850;DHT22;6995;52.618;13.488;2023-12-20T06:36:27;5.60;1.00
13850;DHT22;6995;52.618;13.488;2023-12-20T06:38:53;5.70;1.00
13850;DHT22;6995;52.618;13.488;2023-12-20T06:41:18;5.70;1.00
13850;DHT22;6995;52.618;13.488;2023-12-20T06:43:44;5.70;1.00
13850;DHT22;6995;52.618;13.488;2023-12-20T06:46:10;5.70;1.00
13850;DHT22;6995;52.618;13.488;2023-12-20T06:48:38;5.70;1.00
13850;DHT22;6995;52.618;13.488;2023-12-20T06:51:05;5.60;1.00
13850;DHT22;6995;52.618;13.488;2023-12-20T06:53:31;5.60;1.00
13850;DHT22;6995;52.618;13.488;2023-12-20T06:55:56;5.60;1.00
13850;DHT22;6995;52.618;13.488;2023-12-20T06:58:23;5.70;1.00
13850;DHT22;6995;52.618;13.488;2023-12-20T07:00:49;5.70;1.00
13850;DHT22;6995;52.618;13.488;2023-12-20T07:03:15;5.70;1.00
13850;DHT22;6995;52.618;13.488;2023-12-20T07:05:40;5.70;1.00
13850;DHT22;6995;52.618;13.488;2023-12-20T07:08:07;5.70;1.00
13850;DHT22;6995;52.618;13.488;2023-12-20T07:10:32;5.70;1.00
13850;DHT22;6995;52.618;13.488;2023-12-20T07:12:58;5.70;1.00
13850;DHT22;6995;52.618;13.488;2023-12-20T07:15:24;5.80;1.00
13850;DHT22;6995;52.618;13.488;2023-12-20T07:17:49;5.80;1.00
13850;DHT22;6995;52.618;13.488;2023-12-20T07:20:15;5.80;1.00
13850;DHT22;6995;52.618;13.488;2023-12-20T07:22:41;5.90;1.00
13850;DHT22;6995;52.618;13.488;2023-12-20T07:25:07;5.90;1.00
13850;DHT22;6995;52.618;13.488;2023-12-20T07:27:33;5.80;1.00
13850;DHT22;6995;52.618;13.488;2023-12-20T07:29:59;5.80;1.00
13850;DHT22;6995;52.618;13.488;2023-12-20T07:32:24;5.90;1.00
13850;DHT22;6995;52.618;13.488;2023-12-20T07:34:50;5.90;99.90
13850;DHT22;6995;52.618;13.488;2023-12-20T07:37:16;5.90;99.90
13850;DHT22;6995;52.618;13.488;2023-12-20T07:39:44;5.90;99.90
13850;DHT22;6995;52.618;13.488;2023-12-20T07:42:10;5.90;99.90
13850;DHT22;6995;52.618;13.488;2023-12-20T07:44:36;5.80;99.90
13850;DHT22;6995;52.618;13.488;2023-12-20T07:47:02;6.00;99.90
13850;DHT22;6995;52.618;13.488;2023-12-20T07:49:27;5.90;99.90
13850;DHT22;6995;52.618;13.488;2023-12-20T07:51:53;5.90;99.90
13850;DHT22;6995;52.618;13.488;2023-12-20T07:54:18;6.00;99.90
13850;DHT22;6995;52.618;13.488;2023-12-20T07:56:46;6.00;99.90
13850;DHT22;6995;52.618;13.488;2023-12-20T07:59:11;6.00;99.90
13850;DHT22;6995;52.618;13.488;2023-12-20T08:01:37;6.10;99.90
13850;DHT22;6995;52.618;13.488;2023-12-20T08:04:03;6.10;99.90
13850;DHT22;6995;52.618;13.488;2023-12-20T08:06:28;6.10;99.90
13850;DHT22;6995;52.618;13.488;2023-12-20T08:08:54;6.10;99.90
13850;DHT22;6995;52.618;13.488;2023-12-20T08:11:19;6.00;99.90
13850;DHT22;6995;52.618;13.488;2023-12-20T08:13:45;6.10;99.90
13850;DHT22;6995;52.618;13.488;2023-12-20T08:16:10;6.10;99.90
13850;DHT22;6995;52.618;13.488;2023-12-20T08:18:39;6.10;99.90
13850;DHT22;6995;52.618;13.488;2023-12-20T08:21:04;6.10;99.90
13850;DHT22;6995;52.618;13.488;2023-12-20T08:23:33;6.10;99.90
13850;DHT22;6995;52.618;13.488;2023-12-20T08:26:07;6.10;99.90
13850;DHT22;6995;52.618;13.488;2023-12-20T08:28:33;6.10;99.90
13850;DHT22;6995;52.618;13.488;2023-12-20T08:31:21;6.10;99.90
13850;DHT22;6995;52.618;13.488;2023-12-20T08:33:48;6.00;99.90
13850;DHT22;6995;52.618;13.488;2023-12-20T08:36:14;6.10;99.90
13850;DHT22;6995;52.618;13.488;2023-12-20T08:38:40;6.10;99.90
13850;DHT22;6995;52.618;13.488;2023-12-20T08:41:06;6.10;99.90
13850;DHT22;6995;52.618;13.488;2023-12-20T08:43:33;6.10;99.90
13850;DHT22;6995;52.618;13.488;2023-12-20T08:45:59;6.10;99.90
13850;DHT22;6995;52.618;13.488;2023-12-20T08:48:25;6.20;99.90
13850;DHT22;6995;52.618;13.488;2023-12-20T08:50:50;6.30;99.90
13850;DHT22;6995;52.618;13.488;2023-12-20T08:53:18;6.30;67.50
13850;DHT22;6995;52.618;13.488;2023-12-20T08:55:44;6.30;78.20
13850;DHT22;6995;52.618;13.488;2023-12-20T08:58:10;6.50;99.90
13850;DHT22;6995;52.618;13.488;2023-12-20T09:00:35;6.40;18.00
13850;DHT22;6995;52.618;13.488;2023-12-20T09:03:02;6.40;1.00
13850;DHT22;6995;52.618;13.488;2023-12-20T09:05:28;6.50;1.00
13850;DHT22;6995;52.618;13.488;2023-12-20T09:07:54;6.50;19.20
13850;DHT22;6995;52.618;13.488;2023-12-20T09:10:19;6.40;1.00
13850;DHT22;6995;52.618;13.488;2023-12-20T09:12:53;6.60;1.00
13850;DHT22;6995;52.618;13.488;2023-12-20T09:15:26;6.60;1.00
13850;DHT22;6995;52.618;13.488;2023-12-20T09:17:52;6.70;1.00
13850;DHT22;6995;52.618;13.488;2023-12-20T09:20:18;6.60;1.00
13850;DHT22;6995;52.618;13.488;2023-12-20T09:22:43;6.60;1.00
13850;DHT22;6995;52.618;13.488;2023-12-20T09:25:12;6.50;1.00
13850;DHT22;6995;52.618;13.488;2023-12-20T09:27:39;6.60;1.00
13850;DHT22;6995;52.618;13.488;2023-12-20T09:30:05;6.60;1.00
13850;DHT22;6995;52.618;13.488;2023-12-20T09:32:31;6.60;1.00
13850;DHT22;6995;52.618;13.488;2023-12-20T09:34:57;6.60;1.00
13850;DHT22;6995;52.618;13.488;2023-12-20T09:37:25;6.60;1.00
13850;DHT22;6995;52.618;13.488;2023-12-20T09:39:51;6.50;1.00
13850;DHT22;6995;52.618;13.488;2023-12-20T09:42:42;6.60;1.00
13850;DHT22;6995;52.618;13.488;2023-12-20T09:45:14;6.70;14.40
13850;DHT22;6995;52.618;13.488;2023-12-20T09:47:40;6.60;1.00
13850;DHT22;6995;52.618;13.488;2023-12-20T09:50:07;6.60;1.00
13850;DHT22;6995;52.618;13.488;2023-12-20T09:52:34;6.70;1.00
13850;DHT22;6995;52.618;13.488;2023-12-20T09:55:01;6.70;1.00
13850;DHT22;6995;52.618;13.488;2023-12-20T09:57:31;6.70;1.00
13850;DHT22;6995;52.618;13.488;2023-12-20T09:59:57;6.70;1.00
13850;DHT22;6995;52.618;13.488;2023-12-20T10:02:25;6.70;1.00
13850;DHT22;6995;52.618;13.488;2023-12-20T10:04:52;6.70;1.00
13850;DHT22;6995;52.618;13.488;2023-12-20T10:07:18;6.70;1.00
13850;DHT22;6995;52.618;13.488;2023-12-20T10:09:44;6.80;1.00
13850;DHT22;6995;52.618;13.488;2023-12-20T10:12:10;6.70;1.00
13850;DHT22;6995;52.618;13.488;2023-12-20T10:14:36;6.70;1.00
13850;DHT22;6995;52.618;13.488;2023-12-20T10:17:05;6.60;1.00
13850;DHT22;6995;52.618;13.488;2023-12-20T10:19:31;6.60;1.00
13850;DHT22;6995;52.618;13.488;2023-12-20T10:22:01;6.60;26.50
13850;DHT22;6995;52.618;13.488;2023-12-20T10:24:30;6.50;15.90
13850;DHT22;6995;52.618;13.488;2023-12-20T10:27:06;6.60;1.00
13850;DHT22;6995;52.618;13.488;2023-12-20T10:29:36;6.70;1.00
13850;DHT22;6995;52.618;13.488;2023-12-20T10:32:24;6.80;1.00
13850;DHT22;6995;52.618;13.488;2023-12-20T10:34:50;6.80;1.00
13850;DHT22;6995;52.618;13.488;2023-12-20T10:37:16;6.80;1.00
13850;DHT22;6995;52.618;13.488;2023-12-20T10:39:43;6.70;1.00
13850;DHT22;6995;52.618;13.488;2023-12-20T10:42:12;6.80;1.00
13850;DHT22;6995;52.618;13.488;2023-12-20T10:44:38;6.80;1.00
13850;DHT22;6995;52.618;13.488;2023-12-20T10:47:05;6.80;1.00
13850;DHT22;6995;52.618;13.488;2023-12-20T10:49:36;6.80;1.00
13850;DHT22;6995;52.618;13.488;2023-12-20T10:52:02;6.80;1.00
13850;DHT22;6995;52.618;13.488;2023-12-20T10:54:29;6.90;1.00
13850;DHT22;6995;52.618;13.488;2023-12-20T10:56:57;6.80;1.00
13850;DHT22;6995;52.618;13.488;2023-12-20T10:59:24;6.80;1.00
13850;DHT22;6995;52.618;13.488;2023-12-20T11:01:50;6.80;1.00
13850;DHT22;6995;52.618;13.488;2023-12-20T11:04:24;6.80;1.00
13850;DHT22;6995;52.618;13.488;2023-12-20T11:06:58;6.80;1.00
13850;DHT22;6995;52.618;13.488;2023-12-20T11:09:26;6.70;1.00
13850;DHT22;6995;52.618;13.488;2023-12-20T11:14:44;6.90;1.00
13850;DHT22;6995;52.618;13.488;2023-12-20T11:17:11;7.00;1.00
13850;DHT22;6995;52.618;13.488;2023-12-20T11:22:27;7.00;1.00
13850;DHT22;6995;52.618;13.488;2023-12-20T11:24:53;7.00;1.00
13850;DHT22;6995;52.618;13.488;2023-12-20T11:27:21;7.00;99.90
13850;DHT22;6995;52.618;13.488;2023-12-20T11:29:54;6.90;1.00
13850;DHT22;6995;52.618;13.488;2023-12-20T11:35:17;6.90;1.00
13850;DHT22;6995;52.618;13.488;2023-12-20T11:37:46;6.80;1.00
13850;DHT22;6995;52.618;13.488;2023-12-20T11:40:16;6.80;24.40
13850;DHT22;6995;52.618;13.488;2023-12-20T11:42:50;6.70;1.00
13850;DHT22;6995;52.618;13.488;2023-12-20T11:45:18;6.70;1.00
13850;DHT22;6995;52.618;13.488;2023-12-20T11:47:48;6.80;10.80
13850;DHT22;6995;52.618;13.488;2023-12-20T11:50:20;6.70;1.00
13850;DHT22;6995;52.618;13.488;2023-12-20T11:52:46;6.80;85.50
13850;DHT22;6995;52.618;13.488;2023-12-20T11:55:12;6.80;1.00
13850;DHT22;6995;52.618;13.488;2023-12-20T11:57:38;6.80;1.00
13850;DHT22;6995;52.618;13.488;2023-12-20T12:00:04;6.90;1.00
13850;DHT22;6995;52.618;13.488;2023-12-20T12:02:31;7.00;1.00
13850;DHT22;6995;52.618;13.488;2023-12-20T12:04:59;7.10;1.00
13850;DHT22;6995;52.618;13.488;2023-12-20T12:07:24;7.00;1.00
13850;DHT22;6995;52.618;13.488;2023-12-20T12:09:50;7.10;1.00
13850;DHT22;6995;52.618;13.488;2023-12-20T12:12:18;7.10;1.00
13850;DHT22;6995;52.618;13.488;2023-12-20T12:14:45;7.10;1.00
13850;DHT22;6995;52.618;13.488;2023-12-20T12:17:11;7.10;1.00
13850;DHT22;6995;52.618;13.488;2023-12-20T12:19:38;7.00;1.00
13850;DHT22;6995;52.618;13.488;2023-12-20T12:22:08;7.00;1.00
13850;DHT22;6995;52.618;13.488;2023-12-20T12:24:43;7.00;1.00
13850;DHT22;6995;52.618;13.488;2023-12-20T12:27:10;6.90;2.90
13850;DHT22;6995;52.618;13.488;2023-12-20T12:29:36;6.90;72.00
13850;DHT22;6995;52.618;13.488;2023-12-20T12:32:26;6.70;99.90
13850;DHT22;6995;52.618;13.488;2023-12-20T12:34:51;6.70;99.90
13850;DHT22;6995;52.618;13.488;2023-12-20T12:37:17;6.60;99.90
13850;DHT22;6995;52.618;13.488;2023-12-20T12:39:43;6.50;99.90
13850;DHT22;6995;52.618;13.488;2023-12-20T12:42:08;6.50;99.90
13850;DHT22;6995;52.618;13.488;2023-12-20T12:44:34;6.50;99.90
13850;DHT22;6995;52.618;13.488;2023-12-20T12:47:00;6.50;99.90
13850;DHT22;6995;52.618;13.488;2023-12-20T12:49:28;6.40;99.90
13850;DHT22;6995;52.618;13.488;2023-12-20T12:51:54;6.40;1.00
13850;DHT22;6995;52.618;13.488;2023-12-20T12:54:21;6.40;1.00
13850;DHT22;6995;52.618;13.488;2023-12-20T12:56:47;6.40;99.90
13850;DHT22;6995;52.618;13.488;2023-12-20T12:59:13;6.30;1.00
13850;DHT22;6995;52.618;13.488;2023-12-20T13:01:39;6.30;1.00
13850;DHT22;6995;52.618;13.488;2023-12-20T13:04:04;6.30;1.00
13850;DHT22;6995;52.618;13.488;2023-12-20T13:06:36;6.30;1.00
13850;DHT22;6995;52.618;13.488;2023-12-20T13:09:02;6.30;1.00
13850;DHT22;6995;52.618;13.488;2023-12-20T13:11:27;6.30;1.00
13850;DHT22;6995;52.618;13.488;2023-12-20T13:13:53;6.30;1.00
13850;DHT22;6995;52.618;13.488;2023-12-20T13:16:18;6.30;1.00
13850;DHT22;6995;52.618;13.488;2023-12-20T13:18:44;6.30;1.00
13850;DHT22;6995;52.618;13.488;2023-12-20T13:21:10;6.40;1.00
13850;DHT22;6995;52.618;13.488;2023-12-20T13:23:35;6.30;1.00
13850;DHT22;6995;52.618;13.488;2023-12-20T13:26:01;5.90;99.90
13850;DHT22;6995;52.618;13.488;2023-12-20T13:28:28;5.30;99.90
13850;DHT22;6995;52.618;13.488;2023-12-20T13:30:53;5.20;1.00
13850;DHT22;6995;52.618;13.488;2023-12-20T13:33:19;5.20;9.90
13850;DHT22;6995;52.618;13.488;2023-12-20T13:35:44;5.40;99.90
13850;DHT22;6995;52.618;13.488;2023-12-20T13:38:12;5.60;99.90
13850;DHT22;6995;52.618;13.488;2023-12-20T13:40:38;5.70;99.90
13850;DHT22;6995;52.618;13.488;2023-12-20T13:43:04;5.80;99.90
13850;DHT22;6995;52.618;13.488;2023-12-20T13:45:29;5.90;99.90
13850;DHT22;6995;52.618;13.488;2023-12-20T13:47:55;6.00;99.90
13850;DHT22;6995;52.618;13.488;2023-12-20T13:50:20;6.00;1.00
13850;DHT22;6995;52.618;13.488;2023-12-20T13:52:47;5.90;1.00
13850;DHT22;6995;52.618;13.488;2023-12-20T13:55:12;5.90;1.00
13850;DHT22;6995;52.618;13.488;2023-12-20T13:57:38;5.80;1.00
13850;DHT22;6995;52.618;13.488;2023-12-20T14:00:05;5.80;1.00
13850;DHT22;6995;52.618;13.488;2023-12-20T14:02:31;5.80;1.00
13850;DHT22;6995;52.618;13.488;2023-12-20T14:04:56;5.80;1.00
13850;DHT22;6995;52.618;13.488;2023-12-20T14:07:22;5.80;1.00
13850;DHT22;6995;52.618;13.488;2023-12-20T14:09:48;5.70;1.00
13850;DHT22;6995;52.618;13.488;2023-12-20T14:12:14;5.70;1.00
13850;DHT22;6995;52.618;13.488;2023-12-20T14:14:39;5.60;1.00
13850;DHT22;6995;52.618;13.488;2023-12-20T14:17:05;5.60;1.00
13850;DHT22;6995;52.618;13.488;2023-12-20T14:19:37;5.60;1.00
13850;DHT22;6995;52.618;13.488;2023-12-20T14:22:02;5.60;1.00
13850;DHT22;6995;52.618;13.488;2023-12-20T14:24:29;5.50;99.90
13850;DHT22;6995;52.618;13.488;2023-12-20T14:26:55;5.50;1.40
13850;DHT22;6995;52.618;13.488;2023-12-20T14:29:21;5.40;1.00
13850;DHT22;6995;52.618;13.488;2023-12-20T14:31:46;5.50;99.90
13850;DHT22;6995;52.618;13.488;2023-12-20T14:34:12;5.50;99.90
13850;DHT22;6995;52.618;13.488;2023-12-20T14:36:38;5.40;99.90
13850;DHT22;6995;52.618;13.488;2023-12-20T14:39:04;5.50;99.90
13850;DHT22;6995;52.618;13.488;2023-12-20T14:41:30;5.30;99.90
13850;DHT22;6995;52.618;13.488;2023-12-20T14:43:56;5.30;99.90
13850;DHT22;6995;52.618;13.488;2023-12-20T14:46:22;5.30;99.90
13850;DHT22;6995;52.618;13.488;2023-12-20T14:48:47;5.30;90.90
13850;DHT22;6995;52.618;13.488;2023-12-20T14:51:14;5.40;74.60
13850;DHT22;6995;52.618;13.488;2023-12-20T14:53:40;5.40;68.70
13850;DHT22;6995;52.618;13.488;2023-12-20T14:56:07;5.40;1.00
13850;DHT22;6995;52.618;13.488;2023-12-20T14:58:36;5.40;14.90
13850;DHT22;6995;52.618;13.488;2023-12-20T15:01:02;5.40;1.00
13850;DHT22;6995;52.618;13.488;2023-12-20T15:03:28;5.50;6.00
13850;DHT22;6995;52.618;13.488;2023-12-20T15:05:55;5.50;1.00
13850;DHT22;6995;52.618;13.488;2023-12-20T15:08:24;5.50;5.00
13850;DHT22;6995;52.618;13.488;2023-12-20T15:10:50;5.40;35.60
13850;DHT22;6995;52.618;13.488;2023-12-20T15:13:16;5.40;86.60
13850;DHT22;6995;52.618;13.488;2023-12-20T15:15:41;5.30;99.90
13850;DHT22;6995;52.618;13.488;2023-12-20T15:18:07;5.20;99.90
13850;DHT22;6995;52.618;13.488;2023-12-20T15:20:33;5.10;99.90
13850;DHT22;6995;52.618;13.488;2023-12-20T15:22:59;5.20;1.00
13850;DHT22;6995;52.618;13.488;2023-12-20T15:25:31;5.20;1.00
13850;DHT22;6995;52.618;13.488;2023-12-20T15:27:57;5.10;1.00
13850;DHT22;6995;52.618;13.488;2023-12-20T15:30:22;5.20;1.00
13850;DHT22;6995;52.618;13.488;2023-12-20T15:32:50;5.30;99.90
13850;DHT22;6995;52.618;13.488;2023-12-20T15:35:16;5.30;1.00
13850;DHT22;6995;52.618;13.488;2023-12-20T15:37:42;5.20;99.90
13850;DHT22;6995;52.618;13.488;2023-12-20T15:40:08;5.30;99.90
13850;DHT22;6995;52.618;13.488;2023-12-20T15:42:38;5.30;99.90
13850;DHT22;6995;52.618;13.488;2023-12-20T15:45:05;5.30;99.90
13850;DHT22;6995;52.618;13.488;2023-12-20T15:47:31;5.20;99.90
13850;DHT22;6995;52.618;13.488;2023-12-20T15:49:57;5.20;99.90
13850;DHT22;6995;52.618;13.488;2023-12-20T15:52:23;5.10;99.90
13850;DHT22;6995;52.618;13.488;2023-12-20T15:54:49;5.00;1.00
13850;DHT22;6995;52.618;13.488;2023-12-20T15:57:15;5.00;1.00
13850;DHT22;6995;52.618;13.488;2023-12-20T15:59:41;4.90;1.00
13850;DHT22;6995;52.618;13.488;2023-12-20T16:02:07;4.80;1.00